createdAt,value
2019-05-02T00:00:12.983Z,29.63
2019-05-02T00:02:41.901Z,28.73
2019-05-02T00:05:11.488Z,28.47
2019-05-02T00:07:41.847Z,28.65
2019-05-02T00:10:13.483Z,28.30
2019-05-02T00:12:43.235Z,28.23
2019-05-02T00:15:14.962Z,27.85
2019-05-02T00:17:43.586Z,28.17
2019-05-02T00:20:13.890Z,29.48
2019-05-02T00:22:42.503Z,29.23
2019-05-02T00:25:16.078Z,32.60
2019-05-02T00:27:41.894Z,29.35
2019-05-02T00:30:12.692Z,29.55
2019-05-02T00:32:41.322Z,27.90
2019-05-02T00:35:09.925Z,30.05
2019-05-02T00:37:38.552Z,30.32
2019-05-02T00:40:07.689Z,31.97
2019-05-02T00:42:36.331Z,30.25
2019-05-02T00:45:05.226Z,28.00
2019-05-02T00:47:49.814Z,29.55
2019-05-02T00:50:18.848Z,28.38
2019-05-02T00:52:47.599Z,26.95
2019-05-02T00:55:16.239Z,26.65
2019-05-02T00:57:44.701Z,28.05
2019-05-02T01:00:18.190Z,27.20
2019-05-02T01:02:49.674Z,26.68
2019-05-02T01:05:18.303Z,27.62
2019-05-02T01:07:46.921Z,27.32
2019-05-02T01:10:17.334Z,29.32
2019-05-02T01:12:46.244Z,28.80
2019-05-02T01:15:14.986Z,27.85
2019-05-02T01:17:43.507Z,27.48
2019-05-02T01:20:12.468Z,29.23
2019-05-02T01:22:41.196Z,29.02
2019-05-02T01:25:15.009Z,30.57
2019-05-02T01:27:46.873Z,28.05
2019-05-02T01:30:44.566Z,27.55
2019-05-02T01:33:28.324Z,28.60
2019-05-02T01:36:25.620Z,28.98
2019-05-02T01:38:54.159Z,29.70
2019-05-02T01:41:23.967Z,31.12
2019-05-02T01:43:55.068Z,29.85
2019-05-02T01:46:24.195Z,30.82
2019-05-02T01:48:52.857Z,29.90
2019-05-02T01:51:21.359Z,29.12
2019-05-02T01:53:49.898Z,30.52
2019-05-02T01:56:18.514Z,30.50
2019-05-02T01:58:47.042Z,29.75
2019-05-02T02:01:16.219Z,30.32
2019-05-02T02:03:46.982Z,30.60
2019-05-02T02:06:15.788Z,29.50
2019-05-02T02:08:44.528Z,29.18
2019-05-02T02:11:13.141Z,30.55
2019-05-02T02:13:41.758Z,31.60
2019-05-02T02:16:10.501Z,29.20
2019-05-02T02:18:45.235Z,29.52
2019-05-02T02:21:31.051Z,28.85
2019-05-02T02:24:06.940Z,28.52
2019-05-02T02:26:35.481Z,28.52
2019-05-02T02:29:07.884Z,27.37
2019-05-02T02:31:39.723Z,29.80
2019-05-02T02:34:05.326Z,29.95
2019-05-02T02:36:34.696Z,30.62
2019-05-02T02:39:06.832Z,31.27
2019-05-02T02:41:36.571Z,32.67
2019-05-02T02:44:33.574Z,31.77
2019-05-02T02:47:04.524Z,32.50
2019-05-02T02:49:33.066Z,33.18
2019-05-02T02:52:04.933Z,39.65
2019-05-02T02:54:36.580Z,41.45
2019-05-02T02:57:03.238Z,35.00
2019-05-02T02:59:31.755Z,35.10
2019-05-02T03:02:09.214Z,34.90
2019-05-02T03:04:30.835Z,37.88
2019-05-02T03:06:59.550Z,35.35
2019-05-02T03:09:29.101Z,35.33
2019-05-02T03:12:17.519Z,33.92
2019-05-02T03:14:51.118Z,34.40
2019-05-02T03:17:26.429Z,38.67
2019-05-02T03:19:54.333Z,36.23
2019-05-02T03:22:21.077Z,38.02
2019-05-02T03:24:49.616Z,36.73
2019-05-02T03:27:18.249Z,36.00
2019-05-02T03:29:46.864Z,33.83
2019-05-02T03:32:30.169Z,34.05
2019-05-02T03:34:51.698Z,35.80
2019-05-02T03:37:16.868Z,36.15
2019-05-02T03:39:49.534Z,34.48
2019-05-02T03:42:17.247Z,42.55
2019-05-02T03:44:54.906Z,35.40
2019-05-02T03:47:16.565Z,34.73
2019-05-02T03:49:48.539Z,34.43
2019-05-02T03:52:16.032Z,34.85
2019-05-02T03:54:49.959Z,37.03
2019-05-02T03:57:15.365Z,37.88
2019-05-02T03:59:43.988Z,37.85
2019-05-02T04:02:20.361Z,37.25
2019-05-02T04:04:45.023Z,36.10
2019-05-02T04:07:14.236Z,36.20
2019-05-02T04:09:42.957Z,35.20
2019-05-02T04:12:18.664Z,34.48
2019-05-02T04:14:42.250Z,34.10
2019-05-02T04:17:11.067Z,32.58
2019-05-02T04:19:40.309Z,32.03
2019-05-02T04:22:11.949Z,30.10
2019-05-02T04:24:40.817Z,34.30
2019-05-02T04:27:10.529Z,31.45
2019-05-02T04:29:39.293Z,32.67
2019-05-02T04:32:11.836Z,35.85
2019-05-02T04:34:38.486Z,33.88
2019-05-02T04:37:06.997Z,33.92
2019-05-02T04:39:38.846Z,33.63
2019-05-02T04:42:16.341Z,34.20
2019-05-02T04:44:47.827Z,31.40
2019-05-02T04:47:16.669Z,30.65
2019-05-02T04:49:39.294Z,31.30
2019-05-02T04:52:11.648Z,31.40
2019-05-02T04:54:39.045Z,32.65
2019-05-02T04:57:08.545Z,32.13
2019-05-02T04:59:39.505Z,33.20
2019-05-02T05:02:08.972Z,32.53
2019-05-02T05:04:42.388Z,32.48
2019-05-02T05:07:09.390Z,31.57
2019-05-02T05:09:39.919Z,31.42
2019-05-02T05:12:08.952Z,29.95
2019-05-02T05:14:41.266Z,30.05
2019-05-02T05:17:08.124Z,28.80
2019-05-02T05:19:37.347Z,30.45
2019-05-02T05:22:08.810Z,29.07
2019-05-02T05:24:42.608Z,30.52
2019-05-02T05:27:13.172Z,29.05
2019-05-02T05:29:41.953Z,30.05
2019-05-02T05:32:10.571Z,29.75
2019-05-02T05:34:39.183Z,30.00
2019-05-02T05:37:09.522Z,30.27
2019-05-02T05:39:43.208Z,29.75
2019-05-02T05:42:10.700Z,29.70
2019-05-02T05:44:39.887Z,29.07
2019-05-02T05:47:12.190Z,34.58
2019-05-02T05:49:39.716Z,28.00
2019-05-02T05:52:08.335Z,27.50
2019-05-02T05:54:38.360Z,27.77
2019-05-02T05:57:07.657Z,28.23
2019-05-02T05:59:38.030Z,28.02
2019-05-02T06:02:13.161Z,28.05
2019-05-02T06:04:38.696Z,28.98
2019-05-02T06:07:07.473Z,27.75
2019-05-02T06:09:36.012Z,26.75
2019-05-02T06:12:04.730Z,26.97
2019-05-02T06:14:34.560Z,26.68
2019-05-02T06:17:03.485Z,26.45
2019-05-02T06:19:31.993Z,26.40
2019-05-02T06:22:00.599Z,25.80
2019-05-02T06:24:29.128Z,26.15
2019-05-02T06:26:57.657Z,26.02
2019-05-02T06:29:26.275Z,27.00
2019-05-02T06:32:00.409Z,26.87
2019-05-02T06:36:57.331Z,28.32
2019-05-02T06:39:27.049Z,28.83
2019-05-02T06:41:57.514Z,27.75
2019-05-02T06:44:26.935Z,27.85
2019-05-02T06:46:59.147Z,27.17
2019-05-02T06:49:26.126Z,26.97
2019-05-02T06:51:56.217Z,26.77
2019-05-02T06:54:25.011Z,27.50
2019-05-02T06:56:53.537Z,27.80
2019-05-02T06:59:22.160Z,27.77
2019-05-02T07:01:52.344Z,29.23
2019-05-02T07:04:22.885Z,29.95
2019-05-02T07:06:58.862Z,27.70
2019-05-02T07:09:22.542Z,30.37
2019-05-02T07:11:57.473Z,29.50
2019-05-02T07:14:23.604Z,29.15
2019-05-02T07:16:58.969Z,29.95
2019-05-02T07:19:32.180Z,30.95
2019-05-02T07:22:04.182Z,30.27
2019-05-02T07:24:32.713Z,28.38
2019-05-02T07:27:02.359Z,30.72
2019-05-02T07:29:31.435Z,31.50
2019-05-02T07:32:00.060Z,34.75
2019-05-02T07:34:28.553Z,34.90
2019-05-02T07:36:57.180Z,34.92
2019-05-02T07:39:25.874Z,37.42
2019-05-02T07:41:54.483Z,35.65
2019-05-02T07:44:27.266Z,35.17
2019-05-02T07:46:56.897Z,35.50
2019-05-02T07:49:26.614Z,36.75
2019-05-02T07:51:57.637Z,35.58
2019-05-02T07:54:26.798Z,37.90
2019-05-02T07:56:55.459Z,37.85
2019-05-02T07:59:25.128Z,36.98
2019-05-02T08:01:53.897Z,37.75
2019-05-02T08:04:22.580Z,38.05
2019-05-02T08:06:51.090Z,40.00
2019-05-02T08:09:19.847Z,39.80
2019-05-02T08:11:48.520Z,43.13
2019-05-02T08:14:17.145Z,42.08
2019-05-02T08:16:45.824Z,42.10
2019-05-02T08:19:14.315Z,40.33
2019-05-02T08:21:42.816Z,39.80
2019-05-02T08:24:11.878Z,40.20
2019-05-02T08:26:58.384Z,38.58
2019-05-02T08:29:28.918Z,38.20
2019-05-02T08:31:57.712Z,37.85
2019-05-02T08:34:30.957Z,34.60
2019-05-02T08:37:03.289Z,33.83
2019-05-02T08:39:33.754Z,30.57
2019-05-02T08:42:01.338Z,29.57
2019-05-02T08:44:29.860Z,27.75
2019-05-02T08:46:58.483Z,27.50
2019-05-02T08:49:27.136Z,31.05
2019-05-02T08:51:55.741Z,28.02
2019-05-02T08:54:27.949Z,27.60
2019-05-02T08:56:59.198Z,27.98
2019-05-02T08:59:26.206Z,27.50
2019-05-02T09:01:54.994Z,27.85
2019-05-02T09:04:24.256Z,26.97
2019-05-02T09:06:58.696Z,25.80
2019-05-02T09:09:27.959Z,26.15
2019-05-02T09:12:06.884Z,24.87
2019-05-02T09:14:25.270Z,24.60
2019-05-02T09:16:53.889Z,23.80
2019-05-02T09:19:26.465Z,26.42
2019-05-02T09:21:52.863Z,25.43
2019-05-02T09:24:23.973Z,29.52
2019-05-02T09:26:52.053Z,25.70
2019-05-02T09:29:22.239Z,24.00
2019-05-02T09:31:52.694Z,25.80
2019-05-02T09:34:22.924Z,24.37
2019-05-02T09:36:52.928Z,24.30
2019-05-02T09:39:22.732Z,24.75
2019-05-02T09:41:52.655Z,26.23
2019-05-02T09:44:22.451Z,26.00
2019-05-02T09:46:53.073Z,25.90
2019-05-02T09:49:22.159Z,27.15
2019-05-02T09:51:59.175Z,25.17
2019-05-02T09:54:23.104Z,24.90
2019-05-02T09:56:52.485Z,25.10
2019-05-02T09:59:32.847Z,26.00
2019-05-02T10:02:03.379Z,24.18
2019-05-02T10:04:32.558Z,24.50
2019-05-02T10:07:02.521Z,24.98
2019-05-02T10:09:32.413Z,27.62
2019-05-02T10:12:02.112Z,26.82
2019-05-02T10:14:33.012Z,24.90
2019-05-02T10:17:07.005Z,25.77
2019-05-02T10:19:33.227Z,25.95
2019-05-02T10:22:02.075Z,27.90
2019-05-02T10:24:32.220Z,25.43
2019-05-02T10:27:04.175Z,25.92
2019-05-02T10:29:32.917Z,26.62
2019-05-02T10:32:01.896Z,28.02
2019-05-02T10:34:32.787Z,26.95
2019-05-02T10:37:02.940Z,25.68
2019-05-02T10:39:34.029Z,27.42
2019-05-02T10:42:02.375Z,26.57
2019-05-02T10:44:32.633Z,26.95
2019-05-02T10:47:02.902Z,25.82
2019-05-02T10:49:43.711Z,26.97
2019-05-02T10:52:12.369Z,25.30
2019-05-02T10:54:42.175Z,26.05
2019-05-02T10:57:12.623Z,23.42
2019-05-02T10:59:42.056Z,25.25
2019-05-02T11:02:42.485Z,23.05
2019-05-02T11:05:16.910Z,25.02
2019-05-02T11:07:47.866Z,23.12
2019-05-02T11:10:16.716Z,24.67
2019-05-02T11:12:56.323Z,25.85
2019-05-02T11:15:43.915Z,25.88
2019-05-02T11:18:13.116Z,25.00
2019-05-02T11:20:42.190Z,25.05
2019-05-02T11:23:12.675Z,25.72
2019-05-02T11:25:42.121Z,25.85
2019-05-02T11:28:12.421Z,24.67
2019-05-02T11:30:42.300Z,24.92
2019-05-02T11:33:13.352Z,23.18
2019-05-02T11:35:48.784Z,25.12
2019-05-02T11:38:25.963Z,26.00
2019-05-02T11:40:42.661Z,25.50
2019-05-02T11:43:11.617Z,24.70
2019-05-02T11:45:40.228Z,26.35
2019-05-02T11:48:11.339Z,24.92
2019-05-02T11:50:39.512Z,23.75
2019-05-02T11:53:22.276Z,26.12
2019-05-02T11:55:41.311Z,26.68
2019-05-02T11:58:10.643Z,25.92
2019-05-02T12:00:44.514Z,26.35
2019-05-02T12:03:18.390Z,25.72
2019-05-02T12:05:47.045Z,25.92
2019-05-02T12:08:15.692Z,25.27
2019-05-02T12:10:44.428Z,24.60
2019-05-02T12:13:15.930Z,21.77
2019-05-02T12:15:44.393Z,21.70
2019-05-02T12:18:13.026Z,21.55
2019-05-02T12:20:42.539Z,22.60
2019-05-02T12:23:13.000Z,23.02
2019-05-02T12:25:42.295Z,23.10
2019-05-02T12:28:11.973Z,24.35
2019-05-02T12:30:41.873Z,24.40
2019-05-02T12:33:12.256Z,26.62
2019-05-02T12:35:43.304Z,25.27
2019-05-02T12:38:12.295Z,23.35
2019-05-02T12:40:42.197Z,25.57
2019-05-02T12:43:12.029Z,23.05
2019-05-02T12:45:42.180Z,21.12
2019-05-02T12:48:12.983Z,22.30
2019-05-02T12:50:42.004Z,21.60
2019-05-02T12:53:12.615Z,21.77
2019-05-02T12:55:42.161Z,20.82
2019-05-02T12:58:12.497Z,21.42
2019-05-02T13:00:43.105Z,19.65
2019-05-02T13:03:31.691Z,19.65
2019-05-02T13:06:00.579Z,21.90
2019-05-02T13:08:29.503Z,21.25
2019-05-02T13:11:17.900Z,22.13
2019-05-02T13:13:46.690Z,23.60
2019-05-02T13:16:17.365Z,23.27
2019-05-02T13:18:45.990Z,22.58
2019-05-02T13:21:20.818Z,21.07
2019-05-02T13:24:07.529Z,21.77
2019-05-02T13:26:34.355Z,23.30
2019-05-02T13:29:03.138Z,24.12
2019-05-02T13:31:38.258Z,24.18
2019-05-02T13:34:22.258Z,24.10
2019-05-02T13:36:51.925Z,26.20
2019-05-02T13:39:32.647Z,26.73
2019-05-02T13:42:01.767Z,23.95
2019-05-02T13:44:33.108Z,26.17
2019-05-02T13:47:02.707Z,26.62
2019-05-02T13:49:32.429Z,26.37
2019-05-02T13:52:02.514Z,25.43
2019-05-02T13:54:32.960Z,26.25
2019-05-02T13:57:03.135Z,25.05
2019-05-02T13:59:33.727Z,26.05
2019-05-02T14:02:05.187Z,26.27
2019-05-02T14:04:33.957Z,25.75
2019-05-02T14:07:03.147Z,27.20
2019-05-02T14:09:50.853Z,27.32
2019-05-02T14:12:55.028Z,28.57
2019-05-02T14:15:26.761Z,27.90
2019-05-02T14:17:55.507Z,28.23
2019-05-02T14:20:24.218Z,27.70
2019-05-02T14:22:52.998Z,27.75
2019-05-02T14:25:22.336Z,26.25
2019-05-02T14:27:55.324Z,27.67
2019-05-02T14:30:36.012Z,27.42
2019-05-02T14:32:55.235Z,26.62
2019-05-02T14:35:28.302Z,28.87
2019-05-02T14:38:13.777Z,29.75
2019-05-02T14:40:53.455Z,34.30
2019-05-02T14:43:44.494Z,35.52
2019-05-02T14:46:12.461Z,36.48
2019-05-02T14:48:45.272Z,37.63
2019-05-02T14:51:16.562Z,41.48
2019-05-02T14:53:43.468Z,42.48
2019-05-02T14:56:17.699Z,41.35
2019-05-02T14:58:46.419Z,39.73
2019-05-02T15:01:17.138Z,42.17
2019-05-02T15:03:45.557Z,41.90
2019-05-02T15:06:14.183Z,42.27
2019-05-02T15:08:44.899Z,41.18
2019-05-02T15:11:13.354Z,43.17
2019-05-02T15:13:43.672Z,44.65
2019-05-02T15:16:17.768Z,43.30
2019-05-02T15:18:47.540Z,45.38
2019-05-02T15:21:22.349Z,44.88
2019-05-02T15:24:33.346Z,47.43
2019-05-02T15:27:05.530Z,46.60
2019-05-02T15:29:29.406Z,49.48
2019-05-02T15:32:16.485Z,49.05
2019-05-02T15:35:02.386Z,46.63
2019-05-02T15:37:32.160Z,45.70
2019-05-02T15:42:33.961Z,46.50
2019-05-02T15:45:05.597Z,45.88
2019-05-02T15:47:37.070Z,47.75
2019-05-02T15:50:04.523Z,48.68
2019-05-02T15:52:34.975Z,49.73
2019-05-02T15:55:04.379Z,45.08
2019-05-02T15:57:43.136Z,46.23
2019-05-02T16:00:05.773Z,44.60
2019-05-02T16:02:34.315Z,45.33
2019-05-02T16:05:05.426Z,46.20
2019-05-02T16:07:38.127Z,46.23
2019-05-02T16:10:04.801Z,41.48
2019-05-02T16:12:36.050Z,39.83
2019-05-02T16:15:12.944Z,43.65
2019-05-02T16:17:35.946Z,41.58
2019-05-02T16:20:16.770Z,38.35
2019-05-02T16:22:49.603Z,40.20
2019-05-02T16:25:20.142Z,40.12
2019-05-02T16:27:47.256Z,42.50
2019-05-02T16:30:22.139Z,45.30
2019-05-02T16:32:54.148Z,44.75
2019-05-02T16:35:23.868Z,44.90
2019-05-02T16:37:55.994Z,46.75
2019-05-02T16:40:29.754Z,45.95
2019-05-02T16:42:55.786Z,48.80
2019-05-02T16:45:24.654Z,50.45
2019-05-02T16:47:58.626Z,48.70
2019-05-02T16:50:27.468Z,55.25
2019-05-02T16:52:54.477Z,46.70
2019-05-02T16:55:26.607Z,50.98
2019-05-02T16:57:56.621Z,48.68
2019-05-02T17:00:24.869Z,54.42
2019-05-02T17:02:53.596Z,54.00
2019-05-02T17:05:22.335Z,53.68
2019-05-02T17:08:10.857Z,54.15
2019-05-02T17:10:52.086Z,53.75
2019-05-02T17:13:17.681Z,48.08
2019-05-02T17:15:46.330Z,50.23
2019-05-02T17:18:17.995Z,45.35
2019-05-02T17:20:46.970Z,43.05
2019-05-02T17:23:16.193Z,42.83
2019-05-02T17:25:44.904Z,47.60
2019-05-02T17:28:13.516Z,50.80
2019-05-02T17:30:43.062Z,52.90
2019-05-02T17:33:15.902Z,54.20
2019-05-02T17:35:49.360Z,53.10
2019-05-02T17:38:12.710Z,53.38
2019-05-02T17:40:42.205Z,50.17
2019-05-02T17:43:11.031Z,52.73
2019-05-02T17:45:40.315Z,52.48
2019-05-02T17:48:15.689Z,49.67
2019-05-02T17:50:59.550Z,48.87
2019-05-02T17:53:33.781Z,49.03
2019-05-02T17:55:59.227Z,49.38
2019-05-02T17:58:27.743Z,51.05
2019-05-02T18:01:00.162Z,50.95
2019-05-02T18:03:31.131Z,47.70
2019-05-02T18:05:59.373Z,46.98
2019-05-02T18:08:27.981Z,47.50
2019-05-02T18:11:00.137Z,46.18
2019-05-02T18:13:29.174Z,46.45
2019-05-02T18:15:57.521Z,44.35
2019-05-02T18:18:26.165Z,43.78
2019-05-02T18:20:54.803Z,44.77
2019-05-02T18:23:27.391Z,44.95
2019-05-02T18:25:57.411Z,44.83
2019-05-02T18:28:26.430Z,43.00
2019-05-02T18:30:57.181Z,38.08
2019-05-02T18:33:25.386Z,40.15
2019-05-02T18:35:54.120Z,40.60
2019-05-02T18:38:22.758Z,44.40
2019-05-02T18:40:52.450Z,47.20
2019-05-02T18:43:22.387Z,48.40
2019-05-02T18:45:51.604Z,46.35
2019-05-02T18:48:21.832Z,43.65
2019-05-02T18:50:52.616Z,44.88
2019-05-02T18:53:25.708Z,41.80
2019-05-02T18:55:52.247Z,41.55
2019-05-02T18:58:22.714Z,39.00
2019-05-02T19:00:52.101Z,42.25
2019-05-02T19:03:22.860Z,39.65
2019-05-02T19:05:56.673Z,42.73
2019-05-02T19:08:29.141Z,44.03
2019-05-02T19:11:04.744Z,42.65
2019-05-02T19:13:23.519Z,44.05
2019-05-02T19:15:53.443Z,41.42
2019-05-02T19:18:22.438Z,45.08
2019-05-02T19:21:00.342Z,42.67
2019-05-02T19:23:31.982Z,45.35
2019-05-02T19:26:02.314Z,44.40
2019-05-02T19:29:02.301Z,46.10
2019-05-02T19:31:44.401Z,41.00
2019-05-02T19:34:07.460Z,40.98
2019-05-02T19:36:36.174Z,43.10
2019-05-02T19:39:09.835Z,44.67
2019-05-02T19:41:39.021Z,41.90
2019-05-02T19:44:08.448Z,44.55
2019-05-02T19:46:38.871Z,45.67
2019-05-02T19:49:12.483Z,44.67
2019-05-02T19:51:38.388Z,43.50
2019-05-02T19:54:07.213Z,43.95
2019-05-02T19:56:45.331Z,43.87
2019-05-02T19:59:06.586Z,44.75
2019-05-02T20:01:35.392Z,41.75
2019-05-02T20:04:06.101Z,39.60
2019-05-02T20:06:34.865Z,39.50
2019-05-02T20:09:08.288Z,39.60
2019-05-02T20:11:36.317Z,37.93
2019-05-02T20:14:09.302Z,39.67
2019-05-02T20:16:45.788Z,34.83
2019-05-02T20:19:17.274Z,36.05
2019-05-02T20:21:57.149Z,34.38
2019-05-02T20:24:49.160Z,29.87
2019-05-02T20:27:15.444Z,26.17
2019-05-02T20:29:44.417Z,19.25
2019-05-02T20:32:13.129Z,17.80
2019-05-02T20:34:41.936Z,15.38
2019-05-02T20:37:12.610Z,11.08
2019-05-02T20:39:41.628Z,8.75
2019-05-02T20:42:12.103Z,8.15
2019-05-02T20:44:41.891Z,7.62
2019-05-02T20:47:14.112Z,6.20
2019-05-02T20:49:42.640Z,6.05
2019-05-02T20:52:11.937Z,5.20
2019-05-02T20:54:42.679Z,4.37
2019-05-02T20:57:11.998Z,4.60
2019-05-02T20:59:41.701Z,4.60
2019-05-02T21:02:12.242Z,4.15
2019-05-02T21:04:42.541Z,4.00
2019-05-02T21:07:19.010Z,4.08
2019-05-02T21:09:54.204Z,4.55
2019-05-02T21:12:22.910Z,3.92
2019-05-02T21:14:52.320Z,3.45
2019-05-02T21:17:22.077Z,3.60
2019-05-02T21:19:50.804Z,4.30
2019-05-02T21:22:24.157Z,3.22
2019-05-02T21:24:53.018Z,3.75
2019-05-02T21:27:21.911Z,3.37
2019-05-02T21:29:52.254Z,3.55
2019-05-02T21:32:22.926Z,4.80
2019-05-02T21:34:52.025Z,3.60
2019-05-02T21:37:22.619Z,3.62
2019-05-02T21:39:52.069Z,3.98
2019-05-02T21:42:22.556Z,3.98
2019-05-02T21:44:51.824Z,4.00
2019-05-02T21:47:22.319Z,3.58
2019-05-02T21:50:01.825Z,3.42
2019-05-02T21:52:55.967Z,4.47
2019-05-02T21:55:52.068Z,4.05
2019-05-02T21:58:21.589Z,4.00
2019-05-02T22:00:59.314Z,4.20
2019-05-02T22:03:27.849Z,3.98
2019-05-02T22:05:56.748Z,3.65
2019-05-02T22:08:25.404Z,3.72
2019-05-02T22:10:53.928Z,4.47
2019-05-02T22:13:22.573Z,3.87
2019-05-02T22:15:51.656Z,4.45
2019-05-02T22:18:21.633Z,3.87
2019-05-02T22:20:52.245Z,5.55
2019-05-02T22:23:20.911Z,4.67
2019-05-02T22:25:49.456Z,5.03
2019-05-02T22:28:18.000Z,4.92
2019-05-02T22:30:46.520Z,5.90
2019-05-02T22:33:15.041Z,4.78
2019-05-02T22:35:43.693Z,5.40
2019-05-02T22:38:28.254Z,5.12
2019-05-02T22:40:58.169Z,5.53
2019-05-02T22:43:26.684Z,4.92
2019-05-02T22:45:55.196Z,5.50
2019-05-02T22:48:23.834Z,5.03
2019-05-02T22:50:52.387Z,5.72
2019-05-02T22:53:21.605Z,5.30
2019-05-02T22:55:51.801Z,5.17
2019-05-02T22:58:21.888Z,6.03
2019-05-02T23:00:52.227Z,5.83
2019-05-02T23:03:21.501Z,5.22
2019-05-02T23:05:52.612Z,5.72
2019-05-02T23:08:21.954Z,5.72
2019-05-02T23:10:51.937Z,5.97
2019-05-02T23:13:21.976Z,5.80
2019-05-02T23:15:52.154Z,5.90
2019-05-02T23:18:22.686Z,5.50
2019-05-02T23:20:52.610Z,5.75
2019-05-02T23:23:21.583Z,5.67
2019-05-02T23:26:13.811Z,5.83
2019-05-02T23:28:44.563Z,5.53
2019-05-02T23:31:14.060Z,6.55
2019-05-02T23:33:57.913Z,5.95
2019-05-02T23:36:28.240Z,5.78
2019-05-02T23:38:57.404Z,5.55
2019-05-02T23:41:26.141Z,5.10
2019-05-02T23:43:54.880Z,5.85
2019-05-02T23:46:23.605Z,5.87
2019-05-02T23:48:52.685Z,5.55
2019-05-02T23:51:22.588Z,6.05
2019-05-02T23:53:52.794Z,6.70
2019-05-02T23:56:22.146Z,5.42
2019-05-02T23:58:51.948Z,6.30
